Time;durP1;ratioP1;P1;durP2;ratioP2;P2;SDS_P1;SDS_P2;PMS_P1;PMS_P2;Temp;Humidity;BMP_temperature;BMP_pressure;BME280_temperature;BME280_humidity;BME280_pressure;Samples;Min_cycle;Max_cycle;Signal;HPM_P1;HPM_P2
2023/06/03 00:01:29;;;;;;;22.45;16.67;;;20.60;99.90;;;;;;5081254;28;20035;-77
2023/06/03 00:04:33;;;;;;;21.73;17.52;;;20.60;99.90;;;;;;5093465;28;20043;-78
2023/06/03 00:07:37;;;;;;;24.08;16.75;;;20.60;99.90;;;;;;5060794;28;20052;-77
2023/06/03 00:10:41;;;;;;;28.52;16.05;;;20.60;99.90;;;;;;5053266;28;20047;-77
2023/06/03 00:13:45;;;;;;;25.92;17.10;;;20.60;99.90;;;;;;5052961;28;20295;-78
2023/06/03 00:16:49;;;;;;;23.17;17.65;;;20.60;99.90;;;;;;5053333;28;20036;-77
2023/06/03 00:19:54;;;;;;;20.00;16.77;;;20.60;99.90;;;;;;5053219;28;20047;-77
2023/06/03 00:22:58;;;;;;;22.17;17.02;;;20.60;99.90;;;;;;5053226;28;20067;-76
2023/06/03 00:26:02;;;;;;;24.55;17.20;;;20.50;99.90;;;;;;5053007;28;20405;-77
2023/06/03 00:29:06;;;;;;;23.92;17.92;;;20.50;99.90;;;;;;5052982;28;20048;-77
2023/06/03 00:32:10;;;;;;;23.63;16.88;;;20.50;99.90;;;;;;5052915;28;20693;-77
2023/06/03 00:35:14;;;;;;;24.08;17.13;;;20.40;99.90;;;;;;5052095;28;20040;-77
2023/06/03 00:38:18;;;;;;;23.25;16.80;;;20.40;99.90;;;;;;5051931;28;20052;-77
2023/06/03 00:41:23;;;;;;;25.00;17.65;;;20.40;99.90;;;;;;5051583;28;20044;-76
2023/06/03 00:44:27;;;;;;;20.90;16.02;;;20.30;99.90;;;;;;5051927;28;20048;-76
2023/06/03 00:47:31;;;;;;;24.50;17.27;;;20.20;99.90;;;;;;5051821;28;20059;-77
2023/06/03 00:50:35;;;;;;;23.90;17.42;;;20.10;99.90;;;;;;5051511;28;20040;-77
2023/06/03 00:53:40;;;;;;;23.35;15.35;;;20.20;99.90;;;;;;5052149;28;20047;-76
2023/06/03 00:56:44;;;;;;;22.55;15.93;;;20.30;99.90;;;;;;5052553;28;20523;-76
2023/06/03 00:59:48;;;;;;;22.88;15.70;;;20.30;99.90;;;;;;5052364;28;20048;-76
2023/06/03 01:02:55;;;;;;;25.85;16.52;;;20.30;99.90;;;;;;5052548;28;20044;-76
2023/06/03 01:06:32;;;;;;;23.48;16.27;;;20.30;99.90;;;;;;5052149;28;20106;-77
2023/06/03 01:10:00;;;;;;;19.65;15.48;;;20.30;99.90;;;;;;5052380;28;20051;-76
2023/06/03 01:13:25;;;;;;;23.73;16.77;;;20.40;99.90;;;;;;5052218;28;20066;-76
2023/06/03 01:16:32;;;;;;;23.75;16.38;;;20.40;99.90;;;;;;5052457;28;20063;-77
2023/06/03 01:19:48;;;;;;;22.65;15.95;;;20.50;99.90;;;;;;5051241;28;20052;-76
2023/06/03 01:22:57;;;;;;;20.77;16.30;;;20.50;99.90;;;;;;5052097;28;20531;-76
2023/06/03 01:26:04;;;;;;;22.23;14.95;;;20.50;99.90;;;;;;5051783;28;20056;-76
2023/06/03 01:29:08;;;;;;;22.08;16.42;;;20.50;99.90;;;;;;5051708;28;20040;-76
2023/06/03 01:32:15;;;;;;;23.13;15.90;;;20.40;99.90;;;;;;5051672;28;20060;-77
2023/06/03 01:35:20;;;;;;;19.00;14.57;;;20.20;99.90;;;;;;5050715;28;20542;-77
2023/06/03 01:38:25;;;;;;;21.17;14.60;;;20.30;99.90;;;;;;5051897;28;20052;-76
2023/06/03 01:41:34;;;;;;;20.80;15.43;;;20.30;99.90;;;;;;5050861;28;20059;-76
2023/06/03 01:44:39;;;;;;;22.35;15.07;;;20.30;99.90;;;;;;5050730;28;20047;-76
2023/06/03 01:47:43;;;;;;;19.95;15.45;;;20.30;99.90;;;;;;5051525;28;20048;-77
2023/06/03 01:50:47;;;;;;;20.25;15.43;;;20.20;99.90;;;;;;5050776;28;20059;-76
2023/06/03 01:53:53;;;;;;;20.48;16.15;;;20.10;99.90;;;;;;5050389;28;20519;-77
2023/06/03 01:56:58;;;;;;;22.30;16.40;;;20.10;99.90;;;;;;5050597;28;20044;-77
2023/06/03 02:00:06;;;;;;;22.17;17.02;;;20.10;99.90;;;;;;5050637;28;20040;-77
2023/06/03 02:03:18;;;;;;;25.83;17.92;;;19.90;99.90;;;;;;5051190;28;20044;-77
2023/06/03 02:06:22;;;;;;;27.80;20.02;;;19.60;99.90;;;;;;5051952;28;20059;-76
2023/06/03 02:09:28;;;;;;;26.63;19.33;;;19.60;99.90;;;;;;5078818;28;20051;-77
2023/06/03 02:12:32;;;;;;;33.20;21.30;;;19.60;99.90;;;;;;5055802;28;20051;-76
2023/06/03 02:15:38;;;;;;;29.05;20.45;;;19.70;99.90;;;;;;5078659;28;20066;-78
2023/06/03 02:18:42;;;;;;;27.33;20.30;;;19.80;99.90;;;;;;5078931;28;20392;-77
2023/06/03 02:21:46;;;;;;;25.77;18.92;;;19.70;99.90;;;;;;5078439;28;20039;-77
2023/06/03 02:24:51;;;;;;;23.98;17.48;;;19.70;99.90;;;;;;5090985;28;20559;-77
2023/06/03 02:27:58;;;;;;;23.13;16.63;;;19.60;99.90;;;;;;5091363;28;20055;-77
2023/06/03 02:31:02;;;;;;;29.42;16.73;;;19.70;99.90;;;;;;5078877;28;20039;-76
2023/06/03 02:34:06;;;;;;;21.38;16.63;;;19.80;99.90;;;;;;5078342;28;20047;-77
2023/06/03 02:37:12;;;;;;;22.05;16.52;;;19.80;99.90;;;;;;5078235;28;20039;-76
2023/06/03 02:40:15;;;;;;;24.95;16.85;;;19.80;99.90;;;;;;5078472;28;20672;-76
2023/06/03 02:43:19;;;;;;;22.38;15.45;;;19.90;99.90;;;;;;5091716;28;20511;-76
2023/06/03 02:46:24;;;;;;;21.25;14.88;;;19.90;99.90;;;;;;5090738;28;20055;-76
2023/06/03 02:49:27;;;;;;;23.73;17.20;;;19.90;99.90;;;;;;5078277;28;20063;-76
2023/06/03 02:52:33;;;;;;;22.23;16.23;;;19.80;99.90;;;;;;5078245;28;20510;-76
2023/06/03 02:55:38;;;;;;;26.77;17.48;;;19.80;99.90;;;;;;5078202;28;20063;-76
2023/06/03 02:58:42;;;;;;;27.35;17.42;;;19.70;99.90;;;;;;5091292;28;20051;-77
2023/06/03 03:01:45;;;;;;;31.08;18.75;;;19.80;99.90;;;;;;5078562;28;20040;-77
2023/06/03 03:04:49;;;;;;;27.52;18.75;;;19.70;99.90;;;;;;5078224;28;20047;-77
2023/06/03 03:07:54;;;;;;;28.42;18.27;;;19.70;99.90;;;;;;5090500;28;20054;-78
2023/06/03 03:10:57;;;;;;;25.85;18.80;;;19.70;99.90;;;;;;5078333;28;20384;-77
2023/06/03 03:14:02;;;;;;;23.70;19.90;;;19.70;99.90;;;;;;5078225;28;20047;-77
2023/06/03 03:17:06;;;;;;;26.83;20.33;;;19.70;99.90;;;;;;5079072;28;20051;-77
2023/06/03 03:20:11;;;;;;;29.52;19.63;;;19.50;99.90;;;;;;5082058;28;20047;-77
2023/06/03 03:23:16;;;;;;;28.45;19.45;;;19.50;99.90;;;;;;5082051;28;20047;-78
2023/06/03 03:26:22;;;;;;;26.38;19.98;;;19.50;99.90;;;;;;5081823;28;20055;-76
2023/06/03 03:29:26;;;;;;;23.63;18.13;;;19.30;99.90;;;;;;5082157;28;20035;-78
2023/06/03 03:32:36;;;;;;;22.85;17.55;;;19.10;99.90;;;;;;5081724;28;20047;-75
2023/06/03 03:35:41;;;;;;;27.40;16.77;;;19.10;99.90;;;;;;5093569;28;20055;-77
2023/06/03 03:38:50;;;;;;;21.60;17.33;;;19.20;99.90;;;;;;5081641;28;20043;-78
2023/06/03 03:41:54;;;;;;;22.20;16.38;;;19.30;99.90;;;;;;5094524;28;20047;-78
2023/06/03 03:45:00;;;;;;;19.98;15.73;;;19.40;99.90;;;;;;5070110;28;20483;-77
2023/06/03 03:48:06;;;;;;;24.85;16.20;;;19.50;99.90;;;;;;5081420;28;20055;-77
2023/06/03 03:51:15;;;;;;;22.10;15.90;;;19.50;99.90;;;;;;5081172;28;20047;-75
2023/06/03 03:54:23;;;;;;;21.88;15.65;;;19.60;99.90;;;;;;5081286;28;20047;-78
2023/06/03 03:57:28;;;;;;;20.65;15.57;;;19.60;99.90;;;;;;5093772;28;20052;-78
2023/06/03 04:00:33;;;;;;;22.65;16.85;;;19.60;99.90;;;;;;5093930;28;20043;-77
2023/06/03 04:03:41;;;;;;;20.75;17.45;;;19.40;99.90;;;;;;5093718;28;20043;-77
2023/06/03 04:06:46;;;;;;;24.98;17.88;;;19.40;99.90;;;;;;5081017;28;20411;-77
2023/06/03 04:09:50;;;;;;;21.67;17.38;;;19.30;99.90;;;;;;5081027;28;20059;-77
2023/06/03 04:12:54;;;;;;;26.17;16.25;;;19.20;99.90;;;;;;5093864;28;20047;-77
2023/06/03 04:16:00;;;;;;;24.17;18.40;;;19.20;99.90;;;;;;5092526;28;20051;-78
2023/06/03 04:19:09;;;;;;;21.92;17.58;;;19.20;99.90;;;;;;5080790;28;20494;-76
2023/06/03 04:22:21;;;;;;;23.00;16.95;;;19.20;99.90;;;;;;5081079;28;20389;-76
2023/06/03 04:25:26;;;;;;;32.40;18.48;;;19.40;99.90;;;;;;5092589;28;20046;-76
2023/06/03 04:28:33;;;;;;;29.83;18.15;;;19.60;99.90;;;;;;5068802;28;20062;-76
2023/06/03 04:31:37;;;;;;;27.40;17.40;;;19.70;99.90;;;;;;5080773;28;20047;-77
2023/06/03 04:34:54;;;;;;;26.33;17.98;;;19.90;99.90;;;;;;5080424;28;20063;-75
2023/06/03 04:38:00;;;;;;;23.67;18.13;;;20.20;99.90;;;;;;5080384;28;20069;-78
2023/06/03 04:41:05;;;;;;;28.38;17.90;;;20.50;99.90;;;;;;5080528;28;20391;-78
2023/06/03 04:44:11;;;;;;;28.58;18.83;;;20.80;99.90;;;;;;5080183;28;20043;-77
2023/06/03 04:47:17;;;;;;;28.70;20.25;;;21.00;99.90;;;;;;5080160;28;20055;-77
2023/06/03 04:50:24;;;;;;;28.02;18.75;;;21.10;99.90;;;;;;5080359;28;20047;-75
2023/06/03 04:53:28;;;;;;;25.17;18.95;;;21.20;99.90;;;;;;5080045;28;20392;-77
2023/06/03 04:56:33;;;;;;;27.73;19.17;;;21.40;99.90;;;;;;5080095;28;20289;-78
2023/06/03 04:59:40;;;;;;;28.27;20.52;;;21.50;99.90;;;;;;5079800;28;20051;-77
2023/06/03 05:02:55;;;;;;;26.63;22.13;;;21.70;99.90;;;;;;5080432;28;20051;-77
2023/06/03 05:06:01;;;;;;;34.75;22.75;;;21.60;99.90;;;;;;5068346;28;20059;-78
2023/06/03 05:09:09;;;;;;;29.83;21.25;;;21.70;99.90;;;;;;5080321;28;20051;-76
2023/06/03 05:12:18;;;;;;;29.45;20.30;;;21.90;99.90;;;;;;5079630;28;20055;-77
2023/06/03 05:15:22;;;;;;;33.70;20.48;;;22.30;99.90;;;;;;5079642;28;20047;-76
2023/06/03 05:18:27;;;;;;;27.17;20.30;;;22.60;99.90;;;;;;5068572;28;20047;-77
2023/06/03 05:21:31;;;;;;;33.10;21.08;;;22.90;99.90;;;;;;5092183;28;20050;-76
2023/06/03 05:24:35;;;;;;;33.83;20.75;;;23.10;99.90;;;;;;5079558;28;20071;-76
2023/06/03 05:27:40;;;;;;;30.27;20.40;;;23.30;99.70;;;;;;5079449;28;20570;-77
2023/06/03 05:30:45;;;;;;;25.40;19.88;;;23.40;99.40;;;;;;5079463;28;20039;-78
2023/06/03 05:33:49;;;;;;;27.85;20.70;;;23.50;99.50;;;;;;5079566;28;20051;-76
2023/06/03 05:36:57;;;;;;;32.38;20.85;;;23.80;99.10;;;;;;5092044;28;20035;-78
2023/06/03 05:40:01;;;;;;;28.33;19.52;;;23.80;98.70;;;;;;5079296;28;20070;-76
2023/06/03 05:43:05;;;;;;;31.15;20.45;;;24.00;98.70;;;;;;5079428;28;20047;-78
2023/06/03 05:46:09;;;;;;;30.58;20.65;;;24.20;98.50;;;;;;5079444;28;20403;-77
2023/06/03 05:49:14;;;;;;;30.70;21.40;;;24.30;97.90;;;;;;5079136;28;20040;-77
2023/06/03 05:52:18;;;;;;;28.95;19.83;;;24.50;97.70;;;;;;5079484;28;20042;-77
2023/06/03 05:55:22;;;;;;;25.67;19.60;;;24.60;97.80;;;;;;5067681;28;20388;-80
2023/06/03 05:58:27;;;;;;;28.00;19.77;;;24.70;97.20;;;;;;5079235;28;20502;-76
2023/06/03 06:01:33;;;;;;;29.70;18.70;;;24.80;97.20;;;;;;5079330;28;20043;-78
2023/06/03 06:04:38;;;;;;;22.27;17.02;;;24.90;96.90;;;;;;5078900;28;20055;-77
2023/06/03 06:07:43;;;;;;;32.75;22.10;;;25.30;96.70;;;;;;5078456;28;20059;-75
2023/06/03 06:10:47;;;;;;;26.85;20.50;;;25.40;96.10;;;;;;5078811;28;20051;-77
2023/06/03 06:13:51;;;;;;;29.33;19.98;;;25.30;96.20;;;;;;5079297;28;20051;-78
2023/06/03 06:16:55;;;;;;;31.88;22.90;;;25.30;96.50;;;;;;5078839;28;20043;-77
2023/06/03 06:20:02;;;;;;;31.88;22.38;;;25.00;96.30;;;;;;5091119;28;20039;-76
2023/06/03 06:23:08;;;;;;;33.42;21.02;;;25.00;96.80;;;;;;5078454;28;20047;-78
2023/06/03 06:26:16;;;;;;;31.95;21.98;;;25.10;96.50;;;;;;5078841;28;20039;-76
2023/06/03 06:29:21;;;;;;;27.38;19.70;;;25.20;96.40;;;;;;5078463;28;20051;-77
2023/06/03 06:32:26;;;;;;;26.23;20.73;;;25.60;96.00;;;;;;5078495;28;20055;-78
2023/06/03 06:35:34;;;;;;;32.88;21.30;;;25.80;95.90;;;;;;5090051;28;20043;-77
2023/06/03 06:38:40;;;;;;;23.88;19.58;;;26.00;95.70;;;;;;5089402;28;20043;-77
2023/06/03 06:41:44;;;;;;;28.63;17.80;;;26.10;95.40;;;;;;5090662;28;20047;-75
2023/06/03 06:44:52;;;;;;;27.60;19.00;;;26.40;94.90;;;;;;5067150;28;20415;-76
2023/06/03 06:48:08;;;;;;;30.95;20.48;;;26.70;94.40;;;;;;5090917;28;20055;-77
2023/06/03 06:51:29;;;;;;;26.75;15.98;;;26.70;94.00;;;;;;5078116;28;20043;-74
2023/06/03 06:54:35;;;;;;;21.88;16.83;;;26.70;94.40;;;;;;5082443;28;20046;-76
2023/06/03 06:57:40;;;;;;;25.10;18.20;;;27.00;94.00;;;;;;5082088;28;20047;-77
2023/06/03 07:00:45;;;;;;;28.58;19.48;;;27.30;93.50;;;;;;5093909;28;20067;-75
2023/06/03 07:03:50;;;;;;;23.35;16.88;;;27.40;93.00;;;;;;5094553;28;20039;-75
2023/06/03 07:06:54;;;;;;;24.92;17.42;;;27.30;93.50;;;;;;5081731;28;20051;-77
2023/06/03 07:09:59;;;;;;;20.75;13.10;;;26.90;93.50;;;;;;5082093;28;20229;-76
2023/06/03 07:13:03;;;;;;;16.55;11.15;;;26.70;94.00;;;;;;5081876;28;20047;-77
2023/06/03 07:16:08;;;;;;;19.67;10.13;;;26.40;94.40;;;;;;5070291;28;20043;-77
2023/06/03 07:19:12;;;;;;;16.80;10.68;;;26.20;94.60;;;;;;5081663;28;20035;-75
2023/06/03 07:22:21;;;;;;;19.05;10.88;;;26.10;94.70;;;;;;5082003;28;20534;-75
2023/06/03 07:25:38;;;;;;;17.02;10.13;;;25.90;94.90;;;;;;5094553;28;20047;-75
2023/06/03 07:28:47;;;;;;;40.47;12.35;;;25.70;95.20;;;;;;5081934;28;20051;-75
2023/06/03 07:31:53;;;;;;;26.67;11.57;;;25.60;95.40;;;;;;5081823;28;20363;-76
2023/06/03 07:34:57;;;;;;;14.15;11.25;;;25.50;95.60;;;;;;5081375;28;20047;-76
2023/06/03 07:38:04;;;;;;;12.45;9.07;;;25.30;95.80;;;;;;5081565;28;20051;-75
2023/06/03 07:41:09;;;;;;;18.08;10.23;;;25.30;95.70;;;;;;5082042;28;20059;-76
2023/06/03 07:44:38;;;;;;;15.85;10.77;;;25.80;95.10;;;;;;5081329;28;20498;-78
2023/06/03 07:47:42;;;;;;;15.13;9.88;;;26.20;94.40;;;;;;5083853;28;20063;-77
2023/06/03 07:50:49;;;;;;;13.50;10.23;;;26.20;94.30;;;;;;5093936;28;20039;-77
2023/06/03 07:53:55;;;;;;;12.57;9.65;;;26.70;94.20;;;;;;5093711;28;20051;-77
2023/06/03 07:57:00;;;;;;;10.15;8.80;;;27.20;93.80;;;;;;5093733;28;20085;-75
2023/06/03 08:00:05;;;;;;;12.10;9.55;;;27.50;93.50;;;;;;5093959;28;20051;-76
2023/06/03 08:03:18;;;;;;;15.02;10.45;;;27.50;93.20;;;;;;5081937;28;20046;-77
2023/06/03 08:06:26;;;;;;;13.85;11.27;;;27.30;93.40;;;;;;5093604;28;20051;-77
2023/06/03 08:09:33;;;;;;;14.73;11.00;;;27.00;93.30;;;;;;5093614;28;20055;-77
2023/06/03 08:12:41;;;;;;;12.98;11.57;;;27.00;93.50;;;;;;5093668;28;20510;-77
2023/06/03 08:15:47;;;;;;;15.50;11.02;;;27.00;93.30;;;;;;5093464;28;20048;-76
2023/06/03 08:18:54;;;;;;;22.33;11.57;;;26.60;93.50;;;;;;5093803;28;20043;-76
2023/06/03 08:21:58;;;;;;;18.33;11.80;;;26.40;93.90;;;;;;5093573;28;20042;-76
2023/06/03 08:25:02;;;;;;;14.43;10.20;;;26.20;93.70;;;;;;5093108;28;20055;-76
2023/06/03 08:28:06;;;;;;;19.17;11.60;;;26.10;93.90;;;;;;5093107;28;20055;-77
2023/06/03 08:31:10;;;;;;;18.55;12.45;;;26.10;94.10;;;;;;5093666;28;20392;-77
2023/06/03 08:34:14;;;;;;;17.50;10.52;;;26.00;94.00;;;;;;5092957;28;20043;-77
2023/06/03 08:37:18;;;;;;;12.48;10.43;;;26.20;94.20;;;;;;5092660;28;20392;-75
2023/06/03 08:40:25;;;;;;;21.83;14.80;;;26.80;93.70;;;;;;5092323;28;20066;-77
2023/06/03 08:43:38;;;;;;;21.88;11.48;;;27.30;93.50;;;;;;5093414;28;20043;-76
2023/06/03 08:46:59;;;;;;;12.48;9.63;;;27.80;92.80;;;;;;5092744;28;20047;-75
2023/06/03 08:50:08;;;;;;;14.98;10.77;;;28.20;92.10;;;;;;5093153;28;20046;-76
2023/06/03 08:53:12;;;;;;;15.32;10.43;;;28.50;91.40;;;;;;5092638;28;20062;-75
2023/06/03 08:56:18;;;;;;;11.02;9.07;;;28.80;91.40;;;;;;5092963;28;20056;-78
2023/06/03 08:59:24;;;;;;;17.08;9.80;;;28.90;91.20;;;;;;5092524;28;20047;-75
2023/06/03 09:02:32;;;;;;;17.27;10.20;;;28.90;91.10;;;;;;5092428;28;20415;-78
2023/06/03 09:05:37;;;;;;;10.38;8.82;;;28.90;91.00;;;;;;5080007;28;20063;-76
2023/06/03 09:08:42;;;;;;;11.02;9.27;;;28.80;91.10;;;;;;5092423;28;20063;-77
2023/06/03 09:11:48;;;;;;;15.40;10.68;;;28.50;91.10;;;;;;5092394;28;20050;-77
2023/06/03 09:14:55;;;;;;;15.30;10.82;;;28.20;91.40;;;;;;5091590;28;20059;-76
2023/06/03 09:17:58;;;;;;;14.30;9.85;;;27.90;91.50;;;;;;5091865;28;20047;-76
2023/06/03 09:21:03;;;;;;;16.80;11.48;;;27.60;91.70;;;;;;5092293;28;20043;-76
2023/06/03 09:24:07;;;;;;;14.75;9.77;;;27.40;91.70;;;;;;5091775;28;20059;-76
2023/06/03 09:27:11;;;;;;;22.27;12.73;;;27.20;91.90;;;;;;5091932;28;20068;-77
2023/06/03 09:30:16;;;;;;;15.00;9.73;;;27.10;91.80;;;;;;5092770;28;20051;-76
2023/06/03 09:33:21;;;;;;;11.50;9.48;;;27.10;92.30;;;;;;5092260;28;20027;-77
2023/06/03 09:36:26;;;;;;;14.05;10.18;;;27.50;92.20;;;;;;5091793;28;20043;-77
2023/06/03 09:39:35;;;;;;;13.80;10.48;;;28.00;91.70;;;;;;5091272;28;20039;-76
2023/06/03 09:42:44;;;;;;;17.05;10.02;;;28.30;90.40;;;;;;5091598;28;20059;-77
2023/06/03 09:45:48;;;;;;;14.30;10.88;;;28.30;90.00;;;;;;5091988;28;20048;-78
2023/06/03 09:48:52;;;;;;;11.50;9.63;;;28.50;89.80;;;;;;5091903;28;20317;-76
2023/06/03 09:51:57;;;;;;;12.65;9.80;;;28.60;89.20;;;;;;5079267;28;20062;-77
2023/06/03 09:55:02;;;;;;;13.48;9.48;;;28.80;88.60;;;;;;5091575;28;20051;-77
2023/06/03 09:58:10;;;;;;;11.38;8.73;;;28.90;87.80;;;;;;5091618;28;20195;-78
2023/06/03 10:01:14;;;;;;;11.40;8.07;;;29.00;86.10;;;;;;5091428;28;20400;-77
2023/06/03 10:04:38;;;;;;;9.02;7.35;;;29.00;84.40;;;;;;5078556;28;20051;-77
2023/06/03 10:07:48;;;;;;;11.35;7.47;;;29.20;85.60;;;;;;5091088;28;20066;-79
2023/06/03 10:10:57;;;;;;;12.82;9.95;;;29.30;84.60;;;;;;5091579;28;20047;-76
2023/06/03 10:14:05;;;;;;;15.40;9.63;;;29.10;87.30;;;;;;5078819;28;20043;-76
2023/06/03 10:17:09;;;;;;;12.75;10.13;;;28.80;89.40;;;;;;5091267;28;20039;-76
2023/06/03 10:20:36;;;;;;;14.85;10.73;;;28.60;90.30;;;;;;5091326;28;20211;-76
2023/06/03 10:23:42;;;;;;;14.80;8.80;;;28.70;88.10;;;;;;5090770;28;20396;-79
2023/06/03 10:26:46;;;;;;;23.13;10.65;;;28.50;86.00;;;;;;5078306;28;20042;-77
2023/06/03 10:29:54;;;;;;;13.52;10.63;;;28.20;87.90;;;;;;5091332;28;20193;-75
2023/06/03 10:33:03;;;;;;;13.32;9.25;;;28.10;89.50;;;;;;5090938;28;20055;-81
2023/06/03 10:36:07;;;;;;;12.93;9.68;;;28.20;90.10;;;;;;5090611;28;20039;-77
2023/06/03 10:39:11;;;;;;;14.98;9.57;;;28.30;88.90;;;;;;5091256;28;20051;-75
2023/06/03 10:42:15;;;;;;;11.50;10.00;;;28.40;89.40;;;;;;5090828;28;20423;-77
2023/06/03 10:45:19;;;;;;;13.57;9.43;;;28.60;89.30;;;;;;5091200;28;20094;-75
2023/06/03 10:48:25;;;;;;;19.45;10.70;;;28.70;88.00;;;;;;5090736;28;20503;-76
2023/06/03 10:51:37;;;;;;;12.80;10.00;;;28.80;89.70;;;;;;5078446;28;20085;-77
2023/06/03 10:54:56;;;;;;;12.95;10.45;;;28.90;90.10;;;;;;5078119;28;20043;-77
2023/06/03 10:58:12;;;;;;;17.60;11.02;;;29.00;90.20;;;;;;5090474;28;20043;-78
2023/06/03 11:01:16;;;;;;;17.70;11.32;;;29.10;90.20;;;;;;5091016;28;20043;-75
2023/06/03 11:04:24;;;;;;;17.48;13.38;;;29.10;89.60;;;;;;5090568;28;20490;-76
2023/06/03 11:07:33;;;;;;;21.27;11.95;;;29.10;89.30;;;;;;5090633;28;20063;-77
2023/06/03 11:10:39;;;;;;;14.98;10.35;;;29.00;90.00;;;;;;5078510;28;20479;-77
2023/06/03 11:13:45;;;;;;;13.88;10.48;;;29.00;90.40;;;;;;5090596;28;20051;-76
2023/06/03 11:16:58;;;;;;;15.27;9.88;;;29.00;89.30;;;;;;5090651;28;20039;-78
2023/06/03 11:20:03;;;;;;;12.48;9.95;;;28.90;89.90;;;;;;5091016;28;20039;-78
2023/06/03 11:23:07;;;;;;;11.10;9.35;;;28.90;89.90;;;;;;5090367;28;20039;-74
2023/06/03 11:26:34;;;;;;;16.80;10.85;;;29.00;89.80;;;;;;5090702;28;20043;-76
2023/06/03 11:29:46;;;;;;;13.02;10.57;;;28.90;89.30;;;;;;5090881;28;20067;-77
2023/06/03 11:33:07;;;;;;;13.88;11.55;;;28.80;89.60;;;;;;5090658;28;20051;-78
2023/06/03 11:36:53;;;;;;;16.58;10.35;;;28.70;89.60;;;;;;5090431;28;20043;-77
2023/06/03 11:40:08;;;;;;;14.38;10.07;;;28.80;90.00;;;;;;5081608;28;20491;-78
2023/06/03 11:43:12;;;;;;;12.10;9.43;;;28.80;90.10;;;;;;5094278;28;20043;-77
2023/06/03 11:46:17;;;;;;;13.60;10.32;;;28.80;90.10;;;;;;5094191;28;20043;-76
2023/06/03 11:49:24;;;;;;;13.05;9.45;;;28.80;90.20;;;;;;5081658;28;20051;-75
2023/06/03 11:52:36;;;;;;;11.70;9.63;;;28.80;90.10;;;;;;5094042;28;20498;-78
2023/06/03 11:55:40;;;;;;;13.98;9.88;;;28.80;89.90;;;;;;5093934;28;20063;-77
2023/06/03 11:58:51;;;;;;;14.10;9.68;;;28.80;89.40;;;;;;5094214;28;20051;-76
2023/06/03 12:01:57;;;;;;;12.50;10.23;;;28.80;88.90;;;;;;5094237;28;20043;-77
2023/06/03 12:05:05;;;;;;;16.85;9.73;;;28.70;89.10;;;;;;5081363;28;20464;-76
2023/06/03 12:08:09;;;;;;;16.25;11.15;;;28.60;89.80;;;;;;5093489;28;20063;-76
2023/06/03 12:11:33;;;;;;;11.95;9.50;;;28.40;88.90;;;;;;5081256;28;20383;-77
2023/06/03 12:14:38;;;;;;;12.13;9.02;;;28.40;89.30;;;;;;5093892;28;20043;-78
2023/06/03 12:17:42;;;;;;;10.80;9.48;;;28.30;89.80;;;;;;5093713;28;20039;-77
2023/06/03 12:20:46;;;;;;;17.20;9.95;;;28.20;89.60;;;;;;5093602;28;20199;-77
2023/06/03 12:23:50;;;;;;;12.40;10.00;;;28.00;88.60;;;;;;5093282;28;20198;-75
2023/06/03 12:26:55;;;;;;;12.75;9.95;;;27.90;88.50;;;;;;5093144;28;20047;-79
2023/06/03 12:30:01;;;;;;;16.55;10.07;;;27.60;88.50;;;;;;5093207;28;20035;-76
2023/06/03 12:33:07;;;;;;;15.15;9.65;;;27.40;89.00;;;;;;5092914;28;20051;-75
2023/06/03 12:36:12;;;;;;;13.38;10.25;;;27.20;90.00;;;;;;5093081;28;20058;-76
2023/06/03 12:39:18;;;;;;;12.98;10.20;;;27.10;90.30;;;;;;5093194;28;20043;-77
2023/06/03 12:42:37;;;;;;;15.38;9.57;;;27.10;90.90;;;;;;5092822;28;20047;-74
2023/06/03 12:45:41;;;;;;;14.30;9.15;;;27.00;91.10;;;;;;5080712;28;20051;-76
2023/06/03 12:48:45;;;;;;;14.27;9.75;;;26.90;90.90;;;;;;5092956;28;20060;-75
2023/06/03 12:51:49;;;;;;;12.63;9.20;;;26.90;91.00;;;;;;5080340;28;20518;-77
2023/06/03 12:54:54;;;;;;;14.00;10.57;;;26.80;90.70;;;;;;5093017;28;20042;-75
2023/06/03 12:57:58;;;;;;;17.55;9.50;;;26.70;91.00;;;;;;5080528;28;20510;-76
2023/06/03 13:01:02;;;;;;;14.05;9.27;;;26.70;91.20;;;;;;5092605;28;20043;-75
2023/06/03 13:04:06;;;;;;;15.65;9.85;;;26.70;91.40;;;;;;5092741;28;20043;-77
2023/06/03 13:07:10;;;;;;;18.33;8.82;;;26.70;91.50;;;;;;5092544;28;20051;-77
2023/06/03 13:10:15;;;;;;;13.98;8.98;;;26.70;91.40;;;;;;5092401;28;20051;-75
2023/06/03 13:13:19;;;;;;;12.98;9.07;;;26.70;91.50;;;;;;5092451;28;20408;-75
2023/06/03 13:16:23;;;;;;;11.43;8.45;;;26.70;91.40;;;;;;5080115;28;20043;-75
2023/06/03 13:19:27;;;;;;;13.82;8.10;;;26.70;91.30;;;;;;5080095;28;20051;-75
2023/06/03 13:22:32;;;;;;;10.23;7.55;;;26.70;91.10;;;;;;5092269;28;20055;-76
2023/06/03 13:25:36;;;;;;;15.02;8.68;;;26.60;91.20;;;;;;5092519;28;20043;-75
2023/06/03 13:28:40;;;;;;;11.05;7.80;;;26.50;91.50;;;;;;5092078;28;20051;-75
2023/06/03 13:31:43;;;;;;;10.85;7.22;;;26.40;91.10;;;;;;5091970;28;20035;-76
2023/06/03 13:34:48;;;;;;;10.20;7.47;;;26.40;91.50;;;;;;5092321;28;20035;-75
2023/06/03 13:37:52;;;;;;;13.70;7.70;;;26.40;91.70;;;;;;5091788;28;20403;-76
2023/06/03 13:40:57;;;;;;;12.90;7.63;;;26.30;91.60;;;;;;5091567;28;20039;-76
2023/06/03 13:44:01;;;;;;;14.23;8.15;;;26.20;91.50;;;;;;5079453;28;20387;-78
2023/06/03 13:47:07;;;;;;;11.82;7.60;;;26.20;91.70;;;;;;5091815;28;20035;-75
2023/06/03 13:50:11;;;;;;;9.65;7.50;;;26.10;91.90;;;;;;5079153;28;20046;-75
2023/06/03 13:53:15;;;;;;;11.77;6.70;;;26.00;92.00;;;;;;5091657;28;20035;-77
2023/06/03 13:56:19;;;;;;;14.60;7.38;;;25.20;89.60;;;;;;5091677;28;20035;-79
2023/06/03 13:59:24;;;;;;;9.48;6.85;;;24.80;90.90;;;;;;5092182;28;20503;-79
2023/06/03 14:02:28;;;;;;;10.90;7.50;;;24.60;91.20;;;;;;5091420;28;20043;-77
2023/06/03 14:05:32;;;;;;;11.93;7.05;;;24.30;91.10;;;;;;5091797;28;20053;-77
2023/06/03 14:08:36;;;;;;;11.18;7.13;;;24.00;91.70;;;;;;5091423;28;20507;-78
2023/06/03 14:11:40;;;;;;;13.32;7.35;;;23.80;92.10;;;;;;5094173;28;20043;-77
2023/06/03 14:14:44;;;;;;;12.85;7.60;;;23.70;92.40;;;;;;5079510;28;20051;-78
2023/06/03 14:17:48;;;;;;;13.10;7.15;;;23.40;92.70;;;;;;5091687;28;20039;-76
2023/06/03 14:20:52;;;;;;;12.07;7.32;;;23.40;92.90;;;;;;5091762;28;20507;-82
2023/06/03 14:23:56;;;;;;;15.18;6.80;;;23.60;93.10;;;;;;5091808;28;20055;-75
2023/06/03 14:27:00;;;;;;;13.15;7.70;;;23.80;93.00;;;;;;5091098;28;20106;-77
2023/06/03 14:30:05;;;;;;;17.00;8.90;;;24.00;92.80;;;;;;5091114;28;20550;-76
2023/06/03 14:33:09;;;;;;;11.88;6.57;;;24.10;92.70;;;;;;5091502;28;20502;-77
2023/06/03 14:36:13;;;;;;;11.98;6.75;;;24.20;92.70;;;;;;5091887;28;20055;-76
2023/06/03 14:39:17;;;;;;;7.38;5.78;;;24.10;93.00;;;;;;5091528;28;20050;-78
2023/06/03 14:42:21;;;;;;;13.80;5.95;;;24.10;92.30;;;;;;5091736;28;20402;-76
2023/06/03 14:45:25;;;;;;;7.45;5.32;;;23.90;92.50;;;;;;5078745;28;20043;-76
2023/06/03 14:48:29;;;;;;;16.15;6.03;;;23.90;92.70;;;;;;5078605;28;20059;-79
2023/06/03 14:51:32;;;;;;;12.07;5.95;;;23.80;92.60;;;;;;5091025;28;20039;-75
2023/06/03 14:54:36;;;;;;;9.82;6.72;;;23.80;92.80;;;;;;5091178;28;20517;-77
2023/06/03 14:57:40;;;;;;;11.70;6.40;;;23.70;92.60;;;;;;5090909;28;20046;-76
2023/06/03 15:00:44;;;;;;;9.13;6.18;;;23.50;93.00;;;;;;5090930;28;20055;-78
2023/06/03 15:03:48;;;;;;;9.57;5.80;;;23.60;92.40;;;;;;5090821;28;20043;-77
2023/06/03 15:06:52;;;;;;;8.95;6.05;;;23.50;92.50;;;;;;5090642;28;20036;-78
2023/06/03 15:09:57;;;;;;;12.68;6.05;;;23.40;92.90;;;;;;5078490;28;20048;-77
2023/06/03 15:13:02;;;;;;;10.05;6.68;;;23.50;93.20;;;;;;5079219;28;20422;-77
2023/06/03 15:16:06;;;;;;;9.98;7.18;;;23.60;93.30;;;;;;5082618;28;20407;-77
2023/06/03 15:19:10;;;;;;;11.02;7.65;;;23.50;93.70;;;;;;5082569;28;20055;-76
2023/06/03 15:22:14;;;;;;;11.57;8.65;;;23.70;93.90;;;;;;5094594;28;20064;-76
2023/06/03 15:25:18;;;;;;;9.57;8.20;;;23.80;93.70;;;;;;5094908;28;20047;-76
2023/06/03 15:28:22;;;;;;;11.77;8.35;;;23.90;93.60;;;;;;5094540;28;20051;-76
2023/06/03 15:31:26;;;;;;;12.32;8.95;;;24.00;94.20;;;;;;5094660;28;20039;-78
2023/06/03 15:34:30;;;;;;;13.80;9.73;;;24.00;94.70;;;;;;5094455;28;20042;-77
2023/06/03 15:37:34;;;;;;;17.05;10.13;;;24.10;95.20;;;;;;5094473;28;20490;-78
2023/06/03 15:40:38;;;;;;;16.60;9.27;;;24.10;95.30;;;;;;5094322;28;20047;-76
2023/06/03 15:43:42;;;;;;;11.60;9.35;;;24.10;95.10;;;;;;5094520;28;20062;-80
2023/06/03 15:46:46;;;;;;;14.35;11.00;;;24.10;95.40;;;;;;5092275;28;20437;-79
2023/06/03 15:49:51;;;;;;;12.32;9.15;;;24.10;95.40;;;;;;5080194;28;20058;-78